x

8461490 - New London, Ct (nlnc3) Weather Station

7:48 - Tue 25th Jul 2017 All times are EDT. -4 hours from GMT.

  • Wind
    3mph, 5mph gusts
  • Sea Temp 67°f
  • Luft Temp 64°f
  • Sea Pressure 1021.9mb
  • 8461490 - New London, Ct
  • 8461490 - New London, Ct

More Historic Weather Station data

Upgrade to MSW Pro to gain access to the past 30 days of data for over 8000 Wavebouys and Weather Stations around the globe.

Join Pro

Comparision Forecast

View Surf forecast
   
Di 07/25 7:48 3 5 mph 1021.9mb 67f 64f
7:42 3 5 mph 1021.9mb 67f 64f
7:36 1 6 mph 1021.9mb 68f 65f
7:30 5 7 mph 1021.8mb 68f 64f
7:24 3 7 mph 1021.8mb 68f 65f
7:18 3 6 mph 1021.8mb 68f 65f
7:12 2 5 mph 1021.7mb 68f 65f
7:06 3 6 mph 1021.6mb 68f 65f
7:00 3 7 mph 1021.5mb 68f 65f
6:54 3 7 mph 1021.5mb 68f 65f
6:48 3 6 mph 1021.5mb 68f 65f
6:42 2 5 mph 1021.3mb 68f 65f
6:36 1 6 mph 1021.1mb 68f 65f
6:30 3 6 mph 1021.1mb 68f 65f
6:24 3 6 mph 1021.1mb 68f 65f
6:18 3 6 mph 1021mb 68f 65f
6:12 5 7 mph 1021mb 68f 65f
6:06 3 6 mph 1021mb 68f 65f
6:00 2 5 mph 1020.9mb 68f 65f
5:54 3 6 mph 1020.9mb 68f 65f
5:48 3 6 mph 1021mb 68f 65f
5:42 5 6 mph 1020.9mb 68f 65f
5:36 1 3 mph 1020.9mb 68f 65f
5:30 3 5 mph 1020.9mb 68f 65f
5:24 3 6 mph 1020.9mb 68f 65f
5:18 3 7 mph 1020.9mb 68f 65f
5:12 5 7 mph 1020.8mb 68f 65f
5:06 6 7 mph 1020.7mb 68f 65f
5:00 5 8 mph 1020.7mb 68f 65f
4:54 5 8 mph 1020.6mb 68f 65f
4:48 5 6 mph 1020.5mb 68f 65f
4:42 3 6 mph 1020.5mb 68f 66f
4:36 3 6 mph 1020.5mb 68f 66f
4:30 3 6 mph 1020.4mb 67f 66f
4:24 6 7 mph 1020.4mb 67f 66f
4:18 5 6 mph 1020.4mb 67f 66f
4:12 5 6 mph 1020.3mb 68f 66f
4:06 3 6 mph 1020.3mb 67f 67f
4:00 3 6 mph 1020.3mb 67f 66f
3:54 3 5 mph 1020.3mb 67f 66f
3:48 1 3 mph 1020.3mb 67f 66f
3:42 3 6 mph 1020.4mb 67f 65f
3:36 2 5 mph 1020.5mb 67f 65f
3:30 3 5 mph 1020.5mb 67f 65f
3:24 2 5 mph 1020.4mb 67f 65f
3:18 3 6 mph 1020.4mb 67f 65f
3:12 3 7 mph 1020.3mb 67f 65f
3:06 1 6 mph 1020.3mb 67f 65f
3:00 5 8 mph 1020.2mb 67f 65f
2:54 2 5 mph 1020.2mb 67f 65f
2:48 3 7 mph 1020.1mb 67f 65f
2:42 5 6 mph 1020.1mb 67f 65f
2:36 3 8 mph 1020mb 67f 65f
2:30 3 8 mph 1019.9mb 67f 65f
2:24 6 8 mph 1019.8mb 67f 65f
2:18 2 5 mph 1019.8mb 67f 65f
2:12 3 6 mph 1019.8mb 67f 65f
2:06 3 8 mph 1019.8mb 67f 64f
2:00 5 6 mph 1019.8mb 67f 64f
1:54 6 8 mph 1019.8mb 67f 64f
1:48 3 7 mph 1019.6mb 67f 64f
1:42 5 7 mph 1019.5mb 67f 64f
1:36 5 7 mph 1019.5mb 67f 65f
1:30 3 7 mph 1019.5mb 67f 64f
1:24 2 7 mph 1019.4mb 67f 64f
1:18 3 7 mph 1019.5mb 67f 64f
1:12 6 8 mph 1019.5mb 67f 64f
1:06 7 11 mph 1019.5mb 67f 64f
1:00 5 10 mph 1019.4mb 67f 64f
12:54 6 9 mph 1019.4mb 67f 64f
12:48 5 7 mph 1019.4mb 67f 64f
12:42 5 8 mph 1019.4mb 67f 64f
12:36 5 9 mph 1019.4mb 67f 64f
12:30 3 7 mph 1019.5mb 67f 63f
12:24 6 9 mph 1019.5mb 67f 63f
12:18 3 8 mph 1019.4mb 67f 64f
12:12 7 9 mph 1019.4mb 67f 63f
12:06 6 9 mph 1019.5mb 67f 63f
12:00 5 9 mph 1019.4mb 67f 64f
11:54 3 7 mph 1019.3mb 67f 64f
11:48 5 7 mph 1019.2mb 67f 64f
11:42 3 6 mph 1019.2mb 67f 63f
11:36 3 6 mph 1019mb 67f 63f
11:30 3 6 mph 1019mb 67f 63f
11:24 3 7 mph 1018.9mb 67f 63f
11:18 5 7 mph 1018.8mb 67f 63f
11:12 2 5 mph 1018.7mb 67f 63f
11:06 3 6 mph 1018.6mb 67f 63f
11:00 3 6 mph 1018.6mb 67f 62f
10:54 5 8 mph 1018.5mb 67f 62f
10:48 3 9 mph 1018.5mb 67f 62f
10:42 2 6 mph 1018.5mb 67f 62f
10:36 7 9 mph 1018.5mb 67f 61f
10:30 5 9 mph 1018.5mb 67f 62f
10:24 3 7 mph 1018.5mb 67f 62f
10:18 3 8 mph 1018.5mb 67f 62f
10:12 6 8 mph 1018.4mb 67f 61f
10:06 5 9 mph 1018.4mb 67f 61f
10:00 2 7 mph 1018.5mb 67f 61f
9:54 5 8 mph 1018.4mb 67f 61f
9:48 2 8 mph 1018.3mb 67f 61f
9:42 3 7 mph 1018.3mb 67f 61f
9:36 3 6 mph 1018.3mb 67f 61f
9:30 5 7 mph 1018.3mb 67f 61f
9:24 3 7 mph 1018.3mb 67f 60f
9:18 2 7 mph 1018.2mb 67f 61f
9:12 3 7 mph 1018.2mb 67f 61f
9:06 5 7 mph 1018.2mb 67f 61f
9:00 5 7 mph 1018.3mb 67f 61f
8:54 2 5 mph 1018.2mb 67f 61f
8:48 1 6 mph 1018.2mb 67f 61f
8:42 2 5 mph 1018.2mb 67f 61f
8:36 2 6 mph 1018.1mb 67f 60f
8:30 3 6 mph 1018mb 67f 60f
8:24 3 5 mph 1018mb 67f 60f
8:18 3 6 mph 1017.9mb 67f 60f
8:12 2 6 mph 1017.8mb 67f 60f
8:06 2 5 mph 1017.7mb 67f 60f
8:00 2 5 mph 1017.6mb 67f 60f
7:54 5 5 mph 1017.5mb 67f 60f
7:48 3 5 mph 1017.4mb 67f 60f
7:42 3 7 mph 1017.3mb 67f 60f
7:36 3 6 mph 1017.3mb 67f 60f
7:30 3 6 mph 1017.2mb 67f 60f
7:24 3 6 mph 1017.2mb 67f 60f
7:18 3 6 mph 1017.2mb 67f 60f
7:12 3 6 mph 1017mb 67f 60f
7:06 2 6 mph 1017mb 68f 60f
7:00 3 6 mph 1016.9mb 68f 60f
6:54 5 7 mph 1016.8mb 68f 60f
6:48 3 6 mph 1016.7mb 68f 60f
6:42 3 6 mph 1016.8mb 68f 60f
6:36 3 6 mph 1016.9mb 68f 59f
6:30 1 3 mph 1016.8mb 68f 60f
6:24 2 6 mph 1016.6mb 68f 60f
6:18 2 6 mph 1016.4mb 68f 59f
6:12 5 7 mph 1016.2mb 68f 60f
6:06 1 5 mph 1016.3mb 68f 60f
6:00 2 7 mph 1016.2mb 68f 60f
5:54 3 6 mph 1016.2mb 68f 60f
5:48 3 7 mph 1016.2mb 68f 60f
5:42 5 8 mph 1016.3mb 68f 60f
5:36 2 6 mph 1016.2mb 68f 60f
5:30 3 6 mph 1016.1mb 68f 60f
5:24 3 6 mph 1016.2mb 68f 60f
5:18 3 6 mph 1016.3mb 68f 60f
5:12 1 6 mph 1016.3mb 68f 60f
5:06 2 6 mph 1016.1mb 68f 60f
5:00 2 7 mph 1015.8mb 68f 60f
4:54 5 8 mph 1015.6mb 68f 60f
4:48 3 8 mph 1015.4mb 68f 60f
4:42 5 7 mph 1015.1mb 68f 60f
4:36 2 8 mph 1015.2mb 68f 60f
4:30 5 7 mph 1015.1mb 68f 60f
4:24 2 8 mph 1015.2mb 68f 60f
4:18 5 8 mph 1015.3mb 68f 60f
4:12 5 8 mph 1015.3mb 68f 60f
4:06 3 7 mph 1015.1mb 68f 60f
4:00 3 7 mph 1015.1mb 68f 60f
3:54 5 7 mph 1015.2mb 68f 60f
3:48 5 8 mph 1015.2mb 68f 60f
3:42 3 6 mph 1014.8mb 68f 60f
3:36 6 7 mph 1015mb 68f 60f
3:30 5 8 mph 1015.1mb 68f 60f
3:24 5 7 mph 1015.2mb 68f 60f
3:18 2 7 mph 1015.1mb 68f 60f
3:12 5 7 mph 1015.1mb 68f 60f
3:06 3 7 mph 1015.1mb 68f 60f
3:00 5 9 mph 1015.1mb 68f 60f
2:54 3 6 mph 1015.1mb 68f 60f
2:48 3 6 mph 1015mb - -
2:42 2 6 mph 1015mb - -
2:36 2 6 mph 1015mb - -
2:30 2 6 mph 1014.9mb 68f 61f
2:24 3 6 mph 1015mb 68f 60f
2:18 2 8 mph 1015mb 68f 60f
2:12 2 7 mph 1014.9mb 68f 60f
2:06 3 8 mph 1014.9mb 68f 60f
2:00 3 9 mph 1014.8mb 68f 60f
1:54 5 11 mph 1014.5mb 68f 60f
1:48 5 10 mph 1014.2mb 68f 60f
1:42 3 13 mph 1014mb 68f 60f
1:36 3 9 mph 1013.9mb 68f 61f
1:30 5 10 mph 1014.1mb 68f 61f
1:24 3 7 mph 1014.4mb 68f 61f
1:18 2 8 mph 1014.6mb 68f 61f
1:12 2 6 mph 1014.8mb 68f 61f
1:06 3 6 mph 1014.9mb 68f 61f
1:00 5 8 mph 1014.7mb 68f 61f
12:54 5 7 mph 1014.6mb 67f 61f
12:48 3 5 mph 1014.5mb 67f 61f
12:42 2 6 mph 1014.3mb 67f 61f
12:36 3 7 mph 1014.3mb 68f 61f
12:30 2 5 mph 1014.3mb 68f 61f
12:24 3 6 mph 1014.2mb 67f 61f
12:18 3 7 mph 1014.2mb 67f 61f
12:12 3 7 mph 1014.2mb 67f 61f
12:06 5 7 mph 1014.1mb 67f 61f
12:00 3 6 mph 1014.4mb 67f 61f
Mo 07/24 11:54 5 6 mph 1014.5mb 67f 61f
11:48 2 5 mph 1014.3mb 67f 61f
11:42 5 7 mph 1014mb 67f 61f
11:36 5 6 mph 1014mb 67f 61f
11:30 2 6 mph 1014.1mb 67f 61f
11:24 1 6 mph 1014mb 67f 61f
11:18 3 7 mph 1013.8mb 67f 61f
11:12 2 6 mph 1013.7mb 67f 61f
11:06 3 7 mph 1013.8mb 68f 61f
11:00 3 6 mph 1013.8mb 68f 61f
10:54 2 6 mph 1013.8mb 68f 61f
10:48 5 6 mph 1013.7mb 68f 61f
10:42 1 3 mph 1013.9mb 68f 61f
10:36 2 7 mph 1013.6mb 68f 61f
10:30 2 6 mph 1013.6mb 68f 61f
10:24 5 8 mph 1013.4mb 68f 61f
10:18 2 6 mph 1013.5mb 68f 61f
10:12 3 6 mph 1013.3mb 68f 61f
10:06 1 8 mph 1013.3mb 68f 61f
10:00 2 10 mph 1013.2mb 68f 61f
9:48 3 8 mph 1013.1mb 68f 61f
9:42 2 9 mph 1013.1mb 68f 61f
9:36 2 5 mph 1012.8mb 68f 61f
9:30 5 9 mph 1012.5mb 68f 61f
9:24 6 13 mph 1012.6mb 68f 61f
9:18 5 9 mph 1012.6mb 68f 61f
9:12 2 6 mph 1012.7mb 68f 61f
9:06 5 9 mph 1012.5mb 68f 61f
9:00 2 7 mph 1012.5mb 68f 61f
8:54 5 10 mph 1012.6mb 68f 61f
8:48 3 11 mph 1012.5mb 67f 61f
8:42 5 10 mph 1012.3mb 67f 61f
8:36 3 10 mph 1012.3mb 67f 61f
8:30 7 11 mph 1012.3mb 67f 61f
8:24 8 14 mph 1012.4mb 67f 62f
8:18 8 14 mph 1012.3mb 67f 62f
8:12 6 11 mph 1012.2mb 67f 62f
8:06 6 10 mph 1012.2mb 67f 62f
8:00 3 9 mph 1012mb 67f 62f
7:54 6 11 mph 1012mb 67f 62f
7:48 7 13 mph 1011.9mb 67f 62f
7:42 7 16 mph 1011.7mb 67f 62f
7:36 6 14 mph 1011.6mb 67f 62f
7:30 9 14 mph 1011.8mb 67f 62f
7:24 10 15 mph 1011.7mb 67f 62f
7:18 7 13 mph 1011.6mb 67f 62f
7:12 7 13 mph 1011.4mb 67f 62f
7:06 8 16 mph 1011.3mb 67f 62f
7:00 6 14 mph 1011.3mb 67f 62f
6:54 8 14 mph 1011.4mb 68f 62f
6:48 5 14 mph 1011.1mb 68f 62f
6:42 7 11 mph 1010.8mb 68f 62f
6:36 9 15 mph 1010.8mb 69f 62f
6:30 7 14 mph 1010.8mb 69f 62f
6:24 7 14 mph 1010.7mb 69f 62f
6:18 6 14 mph 1010.6mb 69f 62f
6:12 7 15 mph 1010.5mb 69f 62f
6:06 11 16 mph 1010.4mb 69f 62f
6:00 6 16 mph 1010.2mb 69f 62f
5:54 9 16 mph 1010.2mb 69f 62f
5:48 9 15 mph 1010.2mb 69f 62f
5:42 10 16 mph 1010.2mb 69f 62f
5:36 7 15 mph 1010.1mb 70f 62f
5:30 6 17 mph 1010.1mb 70f 62f
5:24 9 14 mph 1010.2mb 70f 62f
5:18 6 14 mph 1010.2mb 70f 62f
5:12 6 14 mph 1010.2mb 70f 62f
5:06 6 13 mph 1010.1mb 69f 62f
5:00 6 14 mph 1010.3mb 69f 62f
4:54 7 14 mph 1010.2mb 69f 62f
4:48 6 11 mph 1010.2mb 70f 61f
4:42 6 17 mph 1010.1mb 70f 61f
4:36 9 16 mph 1010.1mb 70f 61f
4:30 10 17 mph 1010mb 70f 61f
4:24 8 14 mph 1009.9mb 70f 61f
4:18 3 11 mph 1009.9mb 69f 62f
4:12 6 13 mph 1009.8mb 69f 61f
4:06 7 15 mph 1009.7mb 69f 61f
4:00 6 14 mph 1009.7mb 69f 61f
3:54 6 13 mph 1009.7mb 69f 61f
3:48 6 11 mph 1009.7mb 69f 61f
3:42 3 10 mph 1009.7mb 69f 61f
3:36 5 11 mph 1009.8mb 69f 60f
3:30 5 14 mph 1009.8mb 69f 60f
3:24 8 15 mph 1009.8mb 68f 60f
3:18 7 11 mph 1009.8mb 68f 61f
3:12 5 14 mph 1009.9mb 69f 61f
3:06 7 14 mph 1009.9mb 69f 61f
3:00 8 11 mph 1009.9mb 68f 61f
2:54 9 14 mph 1009.8mb 68f 61f
2:48 9 14 mph 1009.6mb 68f 60f
2:42 9 13 mph 1009.2mb 68f 60f
2:36 5 11 mph 1008.9mb 69f 61f
2:30 7 11 mph 1008.9mb 68f 60f
2:24 7 11 mph 1008.9mb 68f 60f
2:18 5 10 mph 1008.8mb 68f 61f
2:12 3 9 mph 1008.8mb 68f 61f
2:06 7 11 mph 1008.8mb 68f 60f
2:00 3 9 mph 1009mb 69f 60f
1:54 5 10 mph 1008.8mb 69f 60f
1:48 3 8 mph 1008.9mb 68f 60f
1:42 7 10 mph 1008.9mb 68f 60f
1:36 3 11 mph 1009.2mb 69f 60f
1:30 3 8 mph 1009.2mb 68f 61f
1:24 5 9 mph 1009mb 68f 60f
1:18 3 8 mph 1009.3mb 69f 60f
1:12 5 8 mph 1009.3mb 69f 60f
1:06 5 9 mph 1009.5mb 68f 60f
1:00 6 10 mph 1009.5mb 68f 60f
12:54 6 8 mph 1009.6mb 68f 60f
12:48 3 11 mph 1009.5mb 68f 61f
12:42 9 14 mph 1009.5mb 68f 60f
12:36 7 10 mph 1009.5mb 68f 61f
12:30 6 13 mph 1009.5mb 67f 61f
12:24 6 9 mph 1009.4mb 67f 61f
12:18 5 8 mph 1009.2mb 67f 61f
12:12 6 9 mph 1009.2mb 67f 62f
12:06 5 8 mph 1009.1mb 67f 62f
12:00 5 9 mph 1009.1mb 67f 61f
11:54 3 9 mph 1009.2mb 67f 62f
11:48 6 9 mph 1009.1mb 67f 61f
11:42 6 9 mph 1009.3mb 67f 62f
11:36 6 9 mph 1009.5mb 67f 62f
11:30 5 9 mph 1009.6mb 68f 62f
11:24 6 8 mph 1009.6mb 68f 62f
11:18 6 9 mph 1009.7mb 68f 62f
11:12 5 7 mph 1009.8mb 68f 62f
11:06 5 8 mph 1009.8mb 68f 62f
11:00 5 8 mph 1009.7mb 68f 62f
10:54 5 10 mph 1009.6mb 68f 62f
10:48 6 11 mph 1009.6mb 68f 62f
10:42 6 10 mph 1009.6mb 69f 62f
10:36 6 9 mph 1009.7mb 68f 62f
10:30 6 8 mph 1009.7mb 68f 62f
10:24 5 8 mph 1009.8mb 68f 62f
10:18 6 9 mph 1009.6mb 68f 61f
10:12 5 10 mph 1009.8mb 67f 61f
10:06 7 13 mph 1009.6mb 68f 61f
10:00 6 10 mph 1009.7mb 68f 61f
9:54 5 7 mph 1009.8mb 68f 61f
9:48 3 10 mph 1009.8mb 68f 61f
9:42 5 8 mph 1009.8mb 68f 60f
9:36 8 11 mph 1009.7mb 68f 60f
9:30 6 8 mph 1009.8mb 68f 60f
9:24 3 8 mph 1010mb 68f 60f
9:18 5 9 mph 1010.1mb 68f 61f
9:12 6 10 mph 1010.2mb 68f 60f
9:06 3 7 mph 1010.3mb 68f 61f
9:00 5 8 mph 1010.5mb 68f 60f
8:54 5 7 mph 1010.4mb 68f 61f
8:48 6 8 mph 1010.5mb 68f 60f
8:42 5 10 mph 1010.4mb 68f 60f
8:36 6 9 mph 1010.3mb 67f 61f
8:30 6 10 mph 1010.2mb 68f 61f
8:24 6 14 mph 1010.3mb 68f 61f
8:18 7 15 mph 1010mb 67f 61f
8:12 3 8 mph 1010.1mb 67f 61f
8:06 5 8 mph 1010.2mb 67f 61f
8:00 6 8 mph 1010mb 67f 61f
7:54 6 8 mph 1010.1mb 67f 61f
7:48 6 9 mph 1010.2mb 67f 61f
7:42 5 7 mph 1010.4mb 67f 61f
7:36 3 8 mph 1010.5mb 67f 61f
7:30 6 10 mph 1010.6mb 67f 61f
7:24 7 10 mph 1010.6mb 67f 61f
7:18 7 14 mph 1010.8mb 67f 62f
7:12 6 10 mph 1010.7mb 67f 62f
7:06 6 9 mph 1010.8mb 67f 62f
7:00 6 10 mph 1010.7mb 67f 62f
6:54 7 11 mph 1010.5mb 67f 62f
6:48 8 14 mph 1010.4mb 67f 62f
6:42 6 11 mph 1010.3mb 67f 62f
6:36 8 14 mph 1010.2mb 67f 62f
6:30 8 14 mph 1010.2mb 67f 62f
6:24 9 13 mph 1010mb 67f 62f
6:18 7 17 mph 1010.1mb 68f 62f
6:12 11 18 mph 1010mb 69f 62f
6:06 8 15 mph 1010.2mb 69f 62f
6:00 13 15 mph 1010.3mb 69f 62f
5:54 9 11 mph 1010.6mb 69f 62f
5:48 10 14 mph 1010.8mb 69f 63f
5:42 8 13 mph 1011mb 70f 63f
5:36 9 15 mph 1011mb 70f 63f
5:30 9 14 mph 1011mb 70f 63f
5:24 8 11 mph 1011.1mb 70f 64f
5:18 6 9 mph 1011.3mb 71f 64f
5:12 7 10 mph 1011.3mb 71f 64f
5:06 6 13 mph 1011.3mb 71f 64f
5:00 6 9 mph 1011.4mb 71f 64f
4:54 7 11 mph 1011.6mb 71f 64f
4:48 8 13 mph 1011.6mb 71f 65f
4:42 10 13 mph 1011.6mb 71f 65f
4:36 7 10 mph 1011.7mb 71f 65f
4:30 7 8 mph 1011.7mb 71f 66f
4:24 5 11 mph 1011.8mb 71f 66f
4:18 7 13 mph 1011.6mb 71f 66f
4:12 8 15 mph 1011.5mb 71f 67f
4:06 8 14 mph 1011.4mb 71f 67f
4:00 8 16 mph 1011.4mb 71f 67f
3:54 8 13 mph 1011.5mb 70f 67f
3:48 8 14 mph 1011.4mb 70f 67f
3:42 8 14 mph 1011.4mb 70f 67f
3:36 7 13 mph 1011.5mb 70f 67f
3:30 10 17 mph 1011.4mb 70f 67f
3:24 8 13 mph 1011.5mb 69f 67f
3:18 10 14 mph 1011.5mb 69f 67f
3:12 7 13 mph 1011.5mb 69f 67f
3:06 8 11 mph 1011.5mb 69f 67f
3:00 7 11 mph 1011.6mb 69f 67f
2:54 7 13 mph 1011.7mb 69f 67f
2:48 8 13 mph 1011.8mb 69f 67f
2:42 7 11 mph 1011.7mb 69f 67f
2:36 8 14 mph 1011.7mb 69f 67f
2:30 8 11 mph 1011.8mb 69f 67f
2:24 9 15 mph 1011.9mb 69f 67f
2:18 9 15 mph 1011.8mb 69f 67f
2:12 7 11 mph 1012mb 69f 67f
2:06 6 13 mph 1012.2mb 69f 67f
2:00 8 11 mph 1012.2mb 69f 67f
1:54 10 14 mph 1012.1mb 68f 67f
1:48 8 10 mph 1012.1mb 68f -
1:42 8 14 mph 1012.1mb 68f -
1:36 7 9 mph 1012.2mb 68f -
1:30 7 9 mph 1012.4mb 68f 67f
1:24 8 10 mph 1012.4mb 68f 68f
1:18 9 13 mph 1012.3mb 68f 68f
1:12 10 16 mph 1012.3mb 68f 68f
1:06 6 8 mph 1012.4mb 68f 68f
1:00 3 8 mph 1012.3mb 68f 68f
12:54 6 9 mph 1012.5mb 68f 68f
12:48 5 9 mph 1012.7mb 68f 68f
12:42 5 9 mph 1012.9mb 68f 68f
12:36 5 9 mph 1012.9mb 68f 68f
12:30 5 8 mph 1012.9mb 68f 68f
12:24 5 7 mph 1013mb 67f 68f
12:18 7 10 mph 1012.9mb 68f 68f
12:12 5 8 mph 1012.8mb 68f 68f
12:06 3 7 mph 1012.8mb 67f 68f
12:00 6 9 mph 1012.8mb 67f 68f
So 07/23 11:54 7 14 mph 1012.7mb 67f 68f
11:48 6 11 mph 1012.6mb 67f 68f
11:42 6 9 mph 1012.6mb 67f 69f
11:36 6 10 mph 1012.7mb 67f 69f
11:30 6 10 mph 1012.7mb 67f 69f
11:24 6 10 mph 1012.6mb 67f 69f
11:18 7 13 mph 1012.5mb 67f 69f
11:12 6 10 mph 1012.4mb 68f 69f
11:06 8 11 mph 1012.4mb 68f 69f
11:00 7 10 mph 1012.4mb 68f 69f
10:54 7 11 mph 1012.5mb 68f 69f
10:48 7 10 mph 1012.7mb 68f 69f
10:42 8 11 mph 1012.6mb 68f 69f
10:36 7 10 mph 1012.5mb 68f 69f
10:30 6 11 mph 1012.5mb 68f 69f
10:24 6 11 mph 1012.4mb 68f 69f
10:18 7 15 mph 1012.4mb 68f 69f
10:12 7 10 mph 1012.3mb 67f 69f
10:06 6 10 mph 1012.3mb 67f 69f
10:00 7 13 mph 1012.2mb 68f 69f
9:54 8 10 mph 1012.4mb 68f 70f
9:48 5 8 mph 1012.5mb 68f 70f
9:42 10 14 mph 1012.4mb 68f 70f
9:36 8 11 mph 1012.3mb 68f 70f
9:30 6 13 mph 1012.4mb 68f 70f
9:24 8 13 mph 1012.2mb 69f 69f
9:18 6 10 mph 1012.1mb 69f 69f
9:12 6 9 mph 1012.2mb 69f 70f
9:06 8 10 mph 1012.2mb 69f 70f
9:00 6 8 mph 1012.1mb 69f 69f
8:54 7 9 mph 1012mb 69f 70f
8:48 6 8 mph 1012.1mb 69f 70f
8:42 3 8 mph 1012.2mb 69f 70f
8:36 6 10 mph 1012.3mb 69f 70f
8:30 5 7 mph 1012.1mb 69f 70f
8:24 5 7 mph 1012mb 69f 70f
8:18 3 8 mph 1011.9mb 69f 70f
8:12 6 9 mph 1011.9mb 69f 70f
8:06 3 8 mph 1011.8mb 69f 70f
8:00 5 7 mph 1011.6mb 69f 70f
7:54 5 8 mph 1011.6mb 69f 70f
7:48 8 11 mph 1011.5mb 68f 70f
7:42 7 10 mph 1011.4mb 68f 70f
7:36 7 13 mph 1011.3mb 68f 70f
7:30 6 11 mph 1011.3mb 68f 71f
7:24 8 11 mph 1011.4mb 67f 71f
7:18 8 13 mph 1011.5mb 67f 71f
7:12 7 13 mph 1011.6mb 67f 71f
7:06 9 14 mph 1011.3mb 67f 72f
7:00 9 13 mph 1011.4mb 67f 72f
6:54 6 10 mph 1011.4mb 67f 72f
6:48 8 11 mph 1011.3mb 67f 72f
6:42 8 13 mph 1011.3mb 67f 72f
6:36 7 10 mph 1011.2mb 67f 73f
6:30 7 11 mph 1011.1mb 67f 73f
6:24 9 13 mph 1011.1mb 67f 73f
6:18 9 14 mph 1011.1mb 67f 73f
6:12 7 11 mph 1011.2mb 67f 73f
6:06 7 13 mph 1011mb 67f 73f
6:00 8 11 mph 1011mb 67f 75f
5:54 7 11 mph 1011mb 67f 75f
5:48 6 11 mph 1010.8mb 67f 74f
5:42 8 10 mph 1010.8mb 67f 74f
5:36 8 11 mph 1010.7mb 68f 75f
5:30 8 10 mph 1010.8mb 68f 75f
5:24 7 10 mph 1010.6mb 69f 75f
5:18 8 11 mph 1010.7mb 68f 75f
5:12 9 13 mph 1010.8mb 68f 75f
5:06 9 14 mph 1010.6mb 69f 75f
5:00 10 13 mph 1010.7mb 69f 75f
4:54 9 11 mph 1010.7mb 71f 75f
4:48 9 13 mph 1010.6mb 70f 75f
4:42 7 11 mph 1010.6mb 69f 75f
4:36 3 6 mph 1010.5mb 69f 76f
4:30 5 8 mph 1010.5mb 70f 76f
4:24 7 10 mph 1010.6mb 70f 75f
4:18 8 11 mph 1010.5mb 69f 75f
4:12 8 10 mph 1010.5mb 69f 74f
4:06 7 10 mph 1010.7mb 69f 74f
4:00 7 13 mph 1010.7mb 69f 74f
3:54 9 13 mph 1010.6mb 70f 74f
3:48 9 11 mph 1010.7mb 70f 74f
3:42 3 6 mph 1010.7mb 70f 74f
3:36 5 9 mph 1010.8mb 70f 75f
3:30 6 11 mph 1010.7mb 69f 75f
3:24 8 11 mph 1010.6mb 69f 75f
3:18 8 11 mph 1010.5mb 69f 75f
3:12 8 13 mph 1010.6mb 70f 75f
3:06 8 10 mph 1010.6mb 70f 75f
3:00 6 11 mph 1010.7mb 69f 75f
2:54 9 11 mph 1010.7mb 68f 75f
2:48 8 13 mph 1010.6mb 68f 75f
2:42 9 11 mph 1010.6mb 68f 75f
2:36 5 7 mph 1010.7mb 68f 75f
2:30 6 9 mph 1010.7mb 68f 75f
2:24 8 11 mph 1010.8mb 68f 75f
2:18 8 11 mph 1010.8mb 68f 75f
2:12 5 8 mph 1010.8mb 68f 75f
2:06 5 9 mph 1010.8mb 68f 75f
2:00 3 10 mph 1010.7mb 68f 75f
1:54 8 14 mph 1010.6mb 68f 74f
1:48 11 16 mph 1010.7mb 68f 74f
1:42 9 13 mph 1010.7mb 68f 74f
1:36 10 16 mph 1010.7mb 68f 74f
1:30 6 9 mph 1010.7mb 68f 74f
1:24 5 10 mph 1010.8mb 68f 75f
1:18 6 10 mph 1010.8mb 68f 74f
1:12 9 11 mph 1010.7mb 68f 74f
1:06 8 11 mph 1010.6mb 68f 74f
1:00 7 11 mph 1010.6mb 68f 74f
12:54 5 10 mph 1010.6mb 68f 74f
12:48 7 11 mph 1010.5mb 68f 74f
12:42 5 8 mph 1010.4mb 68f 74f
12:36 3 7 mph 1010.5mb 68f 74f
12:30 6 9 mph 1010.4mb 68f 73f
12:24 5 7 mph 1010.4mb 68f 74f
12:18 6 11 mph 1010.4mb 68f 73f
12:12 5 8 mph 1010.4mb 68f 73f
12:06 5 10 mph 1010.3mb 68f 73f
12:00 8 13 mph 1010.4mb 68f 73f
11:54 7 10 mph 1010.4mb 67f 73f
11:48 3 9 mph 1010.4mb 67f 73f
11:42 9 10 mph 1010.3mb 67f 73f
11:36 7 11 mph 1010.2mb 67f 73f
11:30 3 11 mph 1010.1mb 67f 73f
11:24 6 9 mph 1010.1mb 67f 73f
11:18 7 11 mph 1010mb 67f 73f
11:12 7 13 mph 1010mb 67f 73f
11:06 6 13 mph 1009.9mb 67f 73f
11:00 5 8 mph 1009.8mb 67f 73f
10:54 6 10 mph 1009.8mb 67f 73f
10:48 6 13 mph 1009.8mb 67f 73f
10:42 6 11 mph 1009.6mb 67f 73f
10:36 6 13 mph 1009.5mb 67f 73f
10:30 9 14 mph 1009.6mb 67f 72f
10:24 9 14 mph 1009.7mb 67f 72f
10:18 6 10 mph 1009.6mb 67f 73f
10:12 7 11 mph 1009.5mb 67f 73f
10:06 7 11 mph 1009.4mb 67f 73f
10:00 9 14 mph 1009.3mb 68f 73f
9:54 7 13 mph 1009.3mb 67f 73f
9:48 3 6 mph 1009.3mb 67f 73f
9:42 3 7 mph 1009.4mb 67f 73f
9:36 3 7 mph 1009.2mb 67f 73f
9:30 3 8 mph 1009.1mb 67f 73f
9:24 3 6 mph 1009.1mb 67f 73f
9:18 3 8 mph 1009.1mb 67f 73f
9:12 3 9 mph 1009.1mb 67f 73f
9:06 3 7 mph 1009mb 67f 73f
9:00 3 9 mph 1008.8mb 68f 73f
8:54 6 10 mph 1008.7mb 68f 73f
8:48 7 10 mph 1008.8mb 68f 73f
8:42 3 7 mph 1008.7mb 68f 73f
8:36 3 9 mph 1008.5mb 68f 73f
8:30 3 8 mph 1008.4mb 68f 73f
8:24 3 10 mph 1008.4mb 68f 73f
8:18 6 9 mph 1008.3mb 68f 73f
8:12 6 9 mph 1008.1mb 68f 73f
8:06 6 8 mph 1008.1mb 68f 74f
8:00 3 6 mph 1008mb 68f 73f
7:54 3 6 mph 1007.9mb 67f 73f
7:48 2 6 mph 1007.9mb 67f 73f
7:42 3 5 mph 1007.8mb 67f 73f
7:36 1 5 mph 1007.7mb 67f 73f
7:30 1 3 mph 1007.7mb 67f 72f
7:24 2 5 mph 1007.7mb 67f 72f
7:18 2 5 mph 1007.7mb 67f 72f
7:12 3 5 mph 1007.5mb 67f 72f
7:06 2 5 mph 1007.6mb 67f 72f
7:00 2 6 mph 1007.5mb 67f 72f
6:54 3 7 mph 1007.5mb 67f 72f
6:48 2 7 mph 1007.4mb 67f 72f
6:42 5 7 mph 1007.3mb 67f 72f
6:36 5 7 mph 1007.2mb 68f 72f
6:30 5 7 mph 1007.1mb 68f 72f
6:24 6 7 mph 1007.1mb 68f 72f
6:18 5 7 mph 1007mb 68f 72f
6:12 6 8 mph 1006.8mb 68f 72f
6:06 6 8 mph 1006.8mb 68f 72f
6:00 5 7 mph 1006.5mb 69f 72f
5:54 2 6 mph 1006.5mb 69f 72f
5:48 3 8 mph 1006.5mb 70f 72f
5:42 5 8 mph 1006.6mb 70f 72f
5:36 6 9 mph 1006.7mb 71f 72f
5:30 6 9 mph 1006.6mb 71f 72f
5:24 5 8 mph 1006.4mb 72f 72f
5:18 5 8 mph 1006.4mb 72f 72f
5:12 5 6 mph 1006.3mb 72f 72f
5:06 5 7 mph 1006.3mb 72f 72f
5:00 6 8 mph 1006.3mb 72f 72f
4:54 6 7 mph 1006.2mb 72f 72f
4:48 6 8 mph 1006.2mb 72f 72f
4:42 6 8 mph 1006.2mb 73f 72f
4:36 5 7 mph 1006.2mb 73f 72f
4:30 5 7 mph 1006.3mb 73f 72f
4:24 6 8 mph 1006.3mb 73f 73f
4:18 6 8 mph 1006.3mb 73f 72f
4:12 5 8 mph 1006.3mb 73f 72f
4:06 6 7 mph 1006.4mb 73f 73f
4:00 3 8 mph 1006.4mb 73f 72f
3:54 2 6 mph 1006.4mb 72f 72f
3:48 3 8 mph 1006.3mb 72f 72f
3:42 5 6 mph 1006.3mb 72f 72f
3:36 2 7 mph 1006.2mb 72f 72f
3:30 5 9 mph 1006.4mb 72f 72f
3:24 5 11 mph 1006.4mb 72f 72f
3:18 7 11 mph 1006.3mb 72f 72f
3:12 6 9 mph 1006.3mb 72f 72f
3:06 5 8 mph 1006.2mb 72f 72f
3:00 7 10 mph 1006.2mb 71f 72f
2:54 7 10 mph 1006.3mb 71f 73f
2:48 6 8 mph 1006.3mb - -
2:42 5 7 mph 1006.4mb - -
2:36 6 8 mph 1006.5mb - -
2:30 5 6 mph 1006.5mb 70f 73f
2:24 5 6 mph 1006.6mb 70f 73f
2:18 3 6 mph 1006.6mb 70f 73f
2:12 3 6 mph 1006.7mb 69f 73f
2:06 3 6 mph 1006.9mb 69f 73f
2:00 5 9 mph 1007mb 69f 73f
1:54 5 8 mph 1007mb 69f 73f
1:48 6 9 mph 1006.9mb 69f -
1:42 6 14 mph 1007mb 69f -
1:36 7 10 mph 1007mb 69f -
1:30 5 6 mph 1006.9mb 69f 73f
1:24 1 2 mph 1006.9mb 69f 73f
1:18 2 3 mph 1007mb 69f 73f
1:12 3 6 mph 1007.1mb 69f 73f
1:06 3 6 mph 1007.3mb 69f 73f
1:00 5 6 mph 1007.4mb 69f 73f
12:54 2 6 mph 1007.5mb 69f 73f
12:48 5 7 mph 1007.5mb 69f 74f
12:42 3 5 mph 1007.6mb 69f 74f
12:36 1 2 mph 1007.6mb 68f 74f
12:30 1 2 mph 1007.7mb 68f 74f
12:24  -  2 mph 1007.9mb 68f 74f
12:18 2 3 mph 1007.9mb 68f 75f
12:12 3 3 mph 1008mb 68f 75f
12:06 3 3 mph 1008.1mb 68f 75f
12:00 2 3 mph 1008.2mb 68f 75f
Sa 07/22 11:54 2 3 mph 1008.3mb 68f 75f
11:48 3 3 mph 1008.3mb 68f 75f
11:42 2 2 mph 1008.4mb 68f 74f
11:36 2 2 mph 1008.5mb 68f 74f
11:30 1 2 mph 1008.4mb 68f 74f
11:24 2 2 mph 1008.3mb 68f 74f
11:18 2 2 mph 1008.4mb 68f 74f
11:12 2 2 mph 1008.4mb 67f 74f
11:06 2 3 mph 1008.4mb 67f 74f
11:00 2 3 mph 1008.3mb 67f 74f
10:54 3 3 mph 1008.4mb 68f 74f
10:48 3 3 mph 1008.5mb 68f 74f
10:42 1 2 mph 1008.5mb 68f 74f
10:36 2 3 mph 1008.3mb 67f 74f
10:30 2 3 mph 1008.4mb 68f 75f
10:24 2 3 mph 1008.4mb 68f 75f
10:18 3 3 mph 1008.4mb 68f 75f
10:12 2 3 mph 1008.5mb 68f 75f
10:06 2 3 mph 1008.5mb 68f 75f
10:00 2 5 mph 1008.6mb 68f 75f
9:54 3 5 mph 1008.6mb 68f 76f
9:48 1 1 mph 1008.6mb 67f 75f
9:42 1 2 mph 1008.5mb 67f 75f
9:36 1 2 mph 1008.5mb 68f 75f
9:30 2 3 mph 1008.4mb 68f 75f
9:24 2 3 mph 1008.4mb 68f 76f
9:18 2 3 mph 1008.4mb 67f 75f
9:12 2 3 mph 1008.5mb 67f 76f
9:06 2 3 mph 1008.4mb 68f 75f
9:00 2 3 mph 1008.3mb 68f 75f
8:54 3 3 mph 1008.1mb 68f 75f
8:48 2 2 mph 1008.3mb 68f 75f
8:42 2 3 mph 1008.3mb 68f 75f
8:36 1 3 mph 1008.4mb 68f 75f
8:30 2 5 mph 1008.5mb 68f 75f
8:24 3 5 mph 1008.4mb 68f 75f
8:18 3 5 mph 1008.4mb 68f 75f
8:12 3 3 mph 1008.4mb 68f 75f
8:06 2 3 mph 1008.4mb 69f 75f
8:00 2 3 mph 1008.5mb 68f 76f
7:54 3 5 mph 1008.5mb 68f 76f
7:48 3 6 mph 1008.5mb 68f 76f
7:42 6 7 mph 1008.5mb 69f 75f
7:36 6 7 mph 1008.6mb 68f 75f
7:30 6 8 mph 1008.5mb 68f 75f
7:24 7 8 mph 1008.5mb 68f 76f
7:12 7 8 mph 1008.6mb 69f 77f
7:06 7 9 mph 1008.5mb 68f 77f
7:00 7 9 mph 1008.6mb 69f 77f
6:54 3 5 mph 1008.6mb 68f 78f
6:48 5 8 mph 1008.6mb 68f 78f
6:42 7 8 mph 1008.7mb 67f 77f
6:36 5 6 mph 1008.7mb 67f 78f
6:30 6 6 mph 1008.7mb 68f 78f
6:24 6 8 mph 1008.7mb 68f 78f
6:18 7 10 mph 1008.7mb 67f 78f
6:12 6 6 mph 1008.7mb 68f 80f
6:06 5 5 mph 1008.9mb 68f 80f
6:00 3 6 mph 1008.9mb 68f 80f
5:54 3 3 mph 1008.7mb 69f 80f
5:48 3 7 mph 1008.7mb 69f 80f
5:42 3 6 mph 1008.8mb 67f 81f
5:36 3 3 mph 1008.8mb 68f 81f
5:30  -  1 mph 1008.7mb 69f 81f
5:24 1 2 mph 1008.8mb 69f 80f
5:18 1 2 mph 1008.8mb 68f 81f
5:12 1 2 mph 1008.8mb 69f 81f
5:06 2 3 mph 1008.8mb 67f 81f
5:00 3 5 mph 1009mb 68f 81f
4:54 5 6 mph 1009.1mb 68f 80f
4:48 6 7 mph 1009.1mb 68f 80f
4:42 6 7 mph 1009.1mb 68f 80f
4:36 6 8 mph 1009.2mb 69f 80f
4:30 7 8 mph 1009.3mb 71f 80f
4:24 7 8 mph 1009.3mb 70f 80f
4:18 7 8 mph 1009.4mb 69f 80f
4:12 7 9 mph 1009.5mb 71f 80f
4:06 7 8 mph 1009.5mb 70f 80f
4:00 6 7 mph 1009.5mb 69f 81f
3:54 6 8 mph 1009.6mb 69f 81f
3:48 6 8 mph 1009.6mb 69f 81f
3:42 7 8 mph 1009.7mb 69f 81f
3:36 7 8 mph 1009.7mb 69f 81f
3:30 7 9 mph 1009.8mb 69f 80f
3:24 8 9 mph 1009.8mb 69f 81f
3:18 7 9 mph 1009.9mb 69f 81f
3:12 6 7 mph 1010mb 69f 82f
3:06 6 8 mph 1009.9mb 69f 82f
3:00 6 8 mph 1010mb 70f 80f
2:54 7 9 mph 1010mb 70f 80f
2:48 8 10 mph 1010.1mb 70f 80f
2:42 7 9 mph 1010.1mb 70f 81f
2:36 7 9 mph 1010.2mb 69f 81f
2:30 7 9 mph 1010.4mb 70f 81f
2:24 8 9 mph 1010.3mb 70f 82f
2:18 7 8 mph 1010.4mb 69f 82f
2:12 7 9 mph 1010.5mb 69f 82f
2:06 7 9 mph 1010.6mb 69f 81f
2:00 6 8 mph 1010.6mb 68f 81f
1:54 7 9 mph 1010.6mb 69f 81f
1:48 9 10 mph 1010.5mb 69f 80f
1:42 9 10 mph 1010.6mb 69f 80f
1:36 8 11 mph 1010.8mb 69f 81f
1:30 9 10 mph 1010.8mb 69f 81f
1:24 8 10 mph 1010.9mb 69f 82f
1:18 7 8 mph 1010.9mb 68f 82f
1:12 7 9 mph 1011mb 68f 82f
1:06 8 10 mph 1011mb 68f 81f
1:00 9 10 mph 1011mb 68f 81f
12:54 7 8 mph 1011mb 68f 81f
12:48 7 9 mph 1011mb 68f 81f
12:42 7 9 mph 1011.1mb 68f 81f
12:36 7 8 mph 1011.1mb 68f 81f
12:30 7 9 mph 1011.1mb 69f 80f
12:24 7 9 mph 1011.2mb 69f 81f
12:18 9 10 mph 1011.1mb 70f 81f
12:12 8 10 mph 1011.1mb 69f 80f
12:06 8 10 mph 1011.2mb 69f 80f
12:00 8 9 mph 1011.1mb 70f 81f
11:54 8 9 mph 1011.2mb 70f 80f
11:48 7 8 mph 1011.3mb 70f 81f
11:42 6 8 mph 1011.3mb 70f 82f
11:36 6 7 mph 1011.4mb 69f 82f
11:30 7 8 mph 1011.4mb 69f 80f
11:24 6 7 mph 1011.3mb 69f 81f
11:18 5 6 mph 1011.4mb 69f 82f
11:12  -  2 mph 1011.4mb 68f 82f
11:06 1 3 mph 1011.4mb 68f 81f
11:00 2 3 mph 1011.3mb 67f 80f
10:54 2 3 mph 1011.3mb 67f 79f
10:48  -  3 mph 1011.4mb 67f 81f
10:42 1 5 mph 1011.4mb 67f 80f
10:36 3 5 mph 1011.4mb 67f 80f
10:30 3 6 mph 1011.5mb 67f 80f
10:24 5 6 mph 1011.5mb 67f 80f
10:18 3 6 mph 1011.5mb 67f 80f
10:12 5 7 mph 1011.5mb 67f 79f
10:06 3 6 mph 1011.5mb 67f 79f
10:00 3 7 mph 1011.4mb 67f 79f
9:54 5 7 mph 1011.3mb 67f 78f
9:48 6 7 mph 1011.3mb 67f 78f
9:42 6 8 mph 1011.3mb 67f 78f
9:36 6 8 mph 1011.2mb 67f 78f
9:30 6 8 mph 1011.3mb 67f 77f
9:24 6 8 mph 1011.3mb 67f 78f
9:18 6 7 mph 1011.3mb 67f 77f
9:12 6 7 mph 1011.4mb 68f 77f
9:06 6 7 mph 1011.3mb 68f 76f
9:00 6 8 mph 1011.3mb 67f 77f
8:54 6 8 mph 1011.4mb 67f 76f
8:48 5 8 mph 1011.4mb 67f 77f
8:42 5 7 mph 1011.4mb 68f 76f
8:36 3 6 mph 1011.5mb 68f 76f
8:30 2 6 mph 1011.5mb 68f 77f
8:24 2 6 mph 1011.7mb 69f 76f
8:18 3 6 mph 1011.8mb 69f 76f
8:12 2 5 mph 1011.7mb 69f 76f
8:06 3 5 mph 1011.7mb 69f 75f
8:00 5 7 mph 1011.9mb 69f 75f
7:54 5 7 mph 1011.8mb 69f 75f
7:48 1 3 mph 1011.7mb 69f 76f
7:42 1 3 mph 1011.6mb 69f 76f
7:36 2 3 mph 1011.6mb 68f 76f
7:30 2 3 mph 1011.6mb 69f 75f
7:24 1 3 mph 1011.5mb 69f 76f
7:18  -  2 mph 1011.6mb 69f 76f
7:12 2 3 mph 1011.6mb 69f 74f
7:06 1 2 mph 1011.6mb 69f 75f
7:00 1 2 mph 1011.6mb 69f 75f
6:54  -  2 mph 1011.5mb 69f 75f
6:48  -  2 mph 1011.4mb 68f 74f
6:42 2 3 mph 1011.3mb 68f 74f
6:36 1 2 mph 1011.1mb 68f 74f
6:30  -  2 mph 1011mb 68f 75f
6:24  -  2 mph 1010.9mb 68f 75f
6:18  -  2 mph 1010.9mb 68f 74f
6:12  -  2 mph 1010.7mb 67f 74f
6:06 1 5 mph 1010.6mb 67f 73f
6:00 2 3 mph 1010.6mb 67f 73f
5:54 1 3 mph 1010.5mb 67f 73f
5:48 2 2 mph 1010.3mb 67f 74f
5:42 1 2 mph 1010.4mb 67f 74f
5:36 1 2 mph 1010.3mb 67f 74f
5:30  -  3 mph 1010.2mb 67f 74f
5:24 2 5 mph 1010.1mb 67f 74f
5:18 3 6 mph 1010.1mb 68f 74f
5:12 3 5 mph 1010.1mb 70f 74f
5:06 1 5 mph 1010.1mb 72f 74f
5:00 3 5 mph 1010.2mb 73f 74f
4:54 1 2 mph 1010.2mb 73f 74f
4:48 2 3 mph 1010.3mb 74f 74f
4:42 1 3 mph 1010.2mb 74f 75f
4:36 1 2 mph 1010.3mb 74f 74f
4:30  -  3 mph 1010.2mb 74f 74f
4:24  -  2 mph 1010.3mb 74f 74f
4:18  -  3 mph 1010.3mb 74f 74f
4:12 1 2 mph 1010.2mb 74f 74f
4:06  -  3 mph 1010.2mb 74f 74f
4:00 2 5 mph 1010.3mb 75f 74f
3:54 2 3 mph 1010.3mb 75f 74f
3:48 1 2 mph 1010.2mb 75f 74f
3:42 2 3 mph 1010.3mb 74f 74f
3:36 2 2 mph 1010.3mb 74f 74f
3:30  -  2 mph 1010.5mb 75f 75f
3:24 2 3 mph 1010.5mb 75f 75f
3:18 1 2 mph 1010.5mb 75f 75f
3:12  -  2 mph 1010.5mb 74f 75f
3:06 2 3 mph 1010.6mb 74f 75f
3:00 3 5 mph 1010.7mb 74f 75f
2:54 2 3 mph 1010.8mb 74f 75f
2:48 2 3 mph 1010.8mb 74f 75f
2:42 2 3 mph 1010.8mb 74f 76f
2:36 2 3 mph 1010.7mb 74f 76f
2:30 2 3 mph 1010.7mb 74f 76f
2:24 3 5 mph 1010.6mb 74f 76f
2:18 3 5 mph 1010.6mb 74f 76f
2:12 1 2 mph 1010.6mb 74f 76f
2:06 1 3 mph 1010.6mb 74f 76f
2:00 3 5 mph 1010.6mb 73f 77f
1:54  -  2 mph 1010.6mb 73f 77f
1:48 2 2 mph 1010.6mb 73f -
1:42  -  3 mph 1010.7mb 72f -
1:36 2 3 mph 1010.7mb 72f -
1:30  -  1 mph 1010.8mb 71f 77f
1:24  -  1 mph 1010.8mb 70f 76f
1:18  -  2 mph 1010.8mb 69f 76f
1:12 1 1 mph 1010.7mb 69f 76f
1:06  -  1 mph 1010.7mb 70f 76f
1:00 1 2 mph 1010.7mb 69f 76f